createdAt,value
2023-01-22T00:02:03.365Z,95701.72
2023-01-22T00:05:47.260Z,95699.97
2023-01-22T00:09:30.000Z,95692.81
2023-01-22T00:13:12.700Z,95698.22
2023-01-22T00:16:55.365Z,95691.63
2023-01-22T00:20:40.861Z,95693.28
2023-01-22T00:24:24.312Z,95692.44
2023-01-22T00:28:07.426Z,95696.66
2023-01-22T00:31:50.118Z,95695.16
2023-01-22T00:35:35.255Z,95701.38
2023-01-22T00:39:19.462Z,95698.91
2023-01-22T00:43:02.344Z,95699.25
2023-01-22T00:46:45.093Z,95693.16
2023-01-22T00:50:27.844Z,95689.50
2023-01-22T00:54:10.543Z,95694.66
2023-01-22T00:57:54.602Z,95690.56
2023-01-22T01:01:38.453Z,95695.84
2023-01-22T01:05:21.223Z,95691.97
2023-01-22T01:09:05.302Z,95689.50
2023-01-22T01:12:47.971Z,95694.66
2023-01-22T01:16:32.981Z,95692.78
2023-01-22T01:20:15.956Z,95694.88
2023-01-22T01:23:59.566Z,95693.13
2023-01-22T01:27:47.082Z,95694.19
2023-01-22T01:31:29.868Z,95699.09
2023-01-22T01:35:13.925Z,95695.09
2023-01-22T01:38:56.609Z,95699.31
2023-01-22T01:42:41.037Z,95700.25
2023-01-22T01:46:25.536Z,95696.25
2023-01-22T01:50:08.468Z,95700.91
2023-01-22T01:53:53.036Z,95692.22
2023-01-22T01:57:36.196Z,95702.88
2023-01-22T02:01:19.575Z,95694.13
2023-01-22T02:05:02.289Z,95696.50
2023-01-22T02:08:46.246Z,95694.19
2023-01-22T02:12:30.756Z,95698.28
2023-01-22T02:16:13.527Z,95694.91
2023-01-22T02:19:56.448Z,95694.44
2023-01-22T02:23:40.446Z,95697.47
2023-01-22T02:27:23.312Z,95697.22
2023-01-22T02:31:06.468Z,95696.16
2023-01-22T02:34:49.264Z,95694.41
2023-01-22T02:38:31.928Z,95685.34
2023-01-22T02:42:16.046Z,95698.63
2023-01-22T02:46:00.580Z,95698.63
2023-01-22T02:49:43.318Z,95699.63
2023-01-22T02:53:25.978Z,95690.16
2023-01-22T02:57:08.780Z,95697.88
2023-01-22T03:00:53.264Z,95701.06
2023-01-22T03:04:35.947Z,95693.44
2023-01-22T03:08:19.678Z,95684.28
2023-01-22T03:12:02.524Z,95694.59
2023-01-22T03:16:05.933Z,95695.44
2023-01-22T03:20:07.225Z,95693.28
2023-01-22T03:23:52.003Z,95696.31
2023-01-22T03:27:34.738Z,95699.28
2023-01-22T03:31:17.987Z,95706.78
2023-01-22T03:35:02.751Z,95691.41
2023-01-22T03:38:45.878Z,95705.84
2023-01-22T03:42:28.748Z,95702.09
2023-01-22T03:46:13.547Z,95696.25
2023-01-22T03:49:56.235Z,95707.97
2023-01-22T03:53:40.808Z,95709.59
2023-01-22T03:57:23.473Z,95716.41
2023-01-22T04:01:07.576Z,95717.22
2023-01-22T04:04:50.639Z,95724.72
2023-01-22T04:08:35.336Z,95721.66
2023-01-22T04:12:19.462Z,95727.63
2023-01-22T04:16:02.785Z,95722.47
2023-01-22T04:19:45.436Z,95722.94
2023-01-22T04:23:28.199Z,95729.00
2023-01-22T04:27:10.834Z,95736.53
2023-01-22T04:30:55.604Z,95729.75
2023-01-22T04:34:38.291Z,95727.16
2023-01-22T04:38:20.998Z,95735.84
2023-01-22T04:42:03.688Z,95730.44
2023-01-22T04:45:46.384Z,95734.09
2023-01-22T04:49:30.466Z,95739.94
2023-01-22T04:53:13.325Z,95738.31
2023-01-22T04:56:56.012Z,95747.56
2023-01-22T05:00:38.840Z,95746.50
2023-01-22T05:04:23.781Z,95747.31
2023-01-22T05:08:09.039Z,95752.47
2023-01-22T05:11:51.783Z,95759.53
2023-01-22T05:15:34.955Z,95756.94
2023-01-22T05:19:17.867Z,95751.06
2023-01-22T05:23:00.568Z,95759.03
2023-01-22T05:26:44.997Z,95756.25
2023-01-22T05:30:27.728Z,95767.75
2023-01-22T05:34:10.447Z,95771.28
2023-01-22T05:37:53.164Z,95765.44
2023-01-22T05:41:38.672Z,95768.25
2023-01-22T05:45:22.737Z,95774.84
2023-01-22T05:49:05.756Z,95772.25
2023-01-22T05:52:48.481Z,95782.34
2023-01-22T05:56:31.298Z,95776.47
2023-01-22T06:00:15.359Z,95785.75
2023-01-22T06:03:59.684Z,95788.19
2023-01-22T06:07:42.318Z,95795.69
2023-01-22T06:11:25.740Z,95794.31
2023-01-22T06:15:09.797Z,95792.44
2023-01-22T06:18:52.482Z,95795.94
2023-01-22T06:22:36.488Z,95800.28
2023-01-22T06:26:19.316Z,95803.09
2023-01-22T06:30:02.073Z,95797.81
2023-01-22T06:33:44.765Z,95802.63
2023-01-22T06:37:27.449Z,95801.22
2023-01-22T06:41:11.686Z,95813.41
2023-01-22T06:44:54.391Z,95809.06
2023-01-22T06:48:37.075Z,95810.69
2023-01-22T06:52:19.775Z,95810.56
2023-01-22T06:56:02.930Z,95817.25
2023-01-22T06:59:46.989Z,95819.25
2023-01-22T07:03:29.774Z,95827.56
2023-01-22T07:07:12.986Z,95829.69
2023-01-22T07:10:55.672Z,95835.78
2023-01-22T07:14:38.340Z,95841.66
2023-01-22T07:18:23.991Z,95843.75
2023-01-22T07:22:06.783Z,95840.72
2023-01-22T07:25:49.493Z,95853.03
2023-01-22T07:29:32.217Z,95843.97
2023-01-22T07:33:15.880Z,95848.38
2023-01-22T07:37:01.911Z,95841.34
2023-01-22T07:40:44.699Z,95854.94
2023-01-22T07:44:27.381Z,95854.94
2023-01-22T07:48:10.771Z,95854.22
2023-01-22T07:51:53.524Z,95858.00
2023-01-22T07:55:37.571Z,95854.63
2023-01-22T07:59:20.238Z,95850.19
2023-01-22T08:03:03.344Z,95851.50
2023-01-22T08:06:46.080Z,95857.13
2023-01-22T08:10:29.084Z,95854.91
2023-01-22T08:14:13.176Z,95860.66
2023-01-22T08:17:55.917Z,95871.47
2023-01-22T08:21:38.753Z,95873.34
2023-01-22T08:25:21.457Z,95876.03
2023-01-22T08:29:07.207Z,95871.91
2023-01-22T08:32:51.576Z,95874.00
2023-01-22T08:36:34.258Z,95875.66
2023-01-22T08:40:17.372Z,95884.81
2023-01-22T08:44:00.324Z,95882.94
2023-01-22T08:47:42.963Z,95880.00
2023-01-22T08:51:27.084Z,95882.69
2023-01-22T08:55:10.833Z,95889.47
2023-01-22T08:58:53.616Z,95895.44
2023-01-22T09:02:36.256Z,95905.84
2023-01-22T09:06:18.908Z,95909.66
2023-01-22T09:10:04.204Z,95918.88
2023-01-22T09:13:47.057Z,95904.28
2023-01-22T09:17:29.753Z,95922.09
2023-01-22T09:21:12.548Z,95930.69
2023-01-22T09:24:55.658Z,95933.59
2023-01-22T09:28:39.870Z,95944.06
2023-01-22T09:32:22.488Z,95949.53
2023-01-22T09:36:09.961Z,95956.41
2023-01-22T09:39:52.767Z,95950.28
2023-01-22T09:43:38.323Z,95953.97
2023-01-22T09:47:31.669Z,95954.53
2023-01-22T09:51:15.491Z,95960.84
2023-01-22T09:54:58.321Z,95965.28
2023-01-22T09:58:41.066Z,95957.41
2023-01-22T10:02:31.028Z,95954.84
2023-01-22T10:06:15.158Z,95953.88
2023-01-22T10:10:02.465Z,95954.38
2023-01-22T10:13:45.225Z,95965.19
2023-01-22T10:17:32.302Z,95964.09
2023-01-22T10:21:19.543Z,95958.63
2023-01-22T10:25:02.353Z,95965.53
2023-01-22T10:28:46.188Z,95956.84
2023-01-22T10:32:31.893Z,95963.13
2023-01-22T10:36:15.775Z,95953.63
2023-01-22T10:40:00.335Z,95967.69
2023-01-22T10:43:43.080Z,95957.47
2023-01-22T10:47:27.625Z,95959.38
2023-01-22T10:51:16.197Z,95950.69
2023-01-22T10:55:00.092Z,95953.72
2023-01-22T10:58:49.001Z,95953.34
2023-01-22T11:02:31.936Z,95948.66
2023-01-22T11:06:20.699Z,95957.06
2023-01-22T11:10:09.345Z,95954.28
2023-01-22T11:13:55.982Z,95958.59
2023-01-22T11:17:40.373Z,95959.69
2023-01-22T11:21:27.804Z,95954.25
2023-01-22T11:25:12.034Z,95950.19
2023-01-22T11:28:59.505Z,95953.72
2023-01-22T11:32:51.946Z,95952.13
2023-01-22T11:36:40.401Z,95948.91
2023-01-22T11:40:28.101Z,95948.94
2023-01-22T11:44:25.655Z,95956.56
2023-01-22T11:48:31.163Z,95952.50
2023-01-22T11:52:22.109Z,95950.06
2023-01-22T11:56:15.956Z,95946.75
2023-01-22T12:00:12.426Z,95955.53
2023-01-22T12:04:35.766Z,95941.88
2023-01-22T12:08:31.943Z,95946.84
2023-01-22T12:12:26.851Z,95952.13
2023-01-22T12:16:16.649Z,95940.00
2023-01-22T12:20:14.461Z,95937.38
2023-01-22T12:24:03.204Z,95925.91
2023-01-22T12:27:50.978Z,95942.28
2023-01-22T12:31:36.815Z,95939.00
2023-01-22T12:35:21.321Z,95935.41
2023-01-22T12:39:12.833Z,95940.59
2023-01-22T12:43:01.374Z,95940.63
2023-01-22T12:46:51.828Z,95943.50
2023-01-22T12:50:34.532Z,95949.13
2023-01-22T12:54:23.647Z,95956.47
2023-01-22T12:58:22.114Z,95962.44
2023-01-22T13:02:06.772Z,95958.31
2023-01-22T13:05:49.589Z,95961.66
2023-01-22T13:09:36.957Z,95966.84
2023-01-22T13:13:24.834Z,95969.81
2023-01-22T13:17:18.932Z,95968.31
2023-01-22T13:21:04.624Z,95968.19
2023-01-22T13:24:53.890Z,95966.94
2023-01-22T13:28:36.582Z,95962.97
2023-01-22T13:32:21.294Z,95968.16
2023-01-22T13:36:10.774Z,95972.88
2023-01-22T13:39:54.892Z,95974.53
2023-01-22T13:43:39.252Z,95977.13
2023-01-22T13:47:28.309Z,95981.34
2023-01-22T13:51:18.245Z,95983.69
2023-01-22T13:55:06.936Z,95984.19
2023-01-22T13:58:54.151Z,95979.53
2023-01-22T14:02:37.039Z,95985.41
2023-01-22T14:06:19.690Z,95983.84
2023-01-22T14:10:15.237Z,95998.56
2023-01-22T14:13:58.075Z,96002.91
2023-01-22T14:17:40.774Z,95995.16
2023-01-22T14:21:24.685Z,96005.06
2023-01-22T14:25:08.704Z,96005.31
2023-01-22T14:28:53.084Z,96000.13
2023-01-22T14:32:35.936Z,96001.22
2023-01-22T14:36:20.310Z,96008.03
2023-01-22T14:40:03.865Z,96012.25
2023-01-22T14:43:47.421Z,96023.44
2023-01-22T14:47:31.581Z,96021.66
2023-01-22T14:51:14.611Z,96024.63
2023-01-22T14:54:57.289Z,96031.69
2023-01-22T14:58:39.977Z,96032.53
2023-01-22T15:02:22.735Z,96038.53
2023-01-22T15:06:07.283Z,96037.94
2023-01-22T15:09:49.927Z,96042.53
2023-01-22T15:13:32.960Z,96047.59
2023-01-22T15:17:15.758Z,96050.66
2023-01-22T15:20:58.609Z,96054.31
2023-01-22T15:24:43.778Z,96049.84
2023-01-22T15:28:26.695Z,96055.84
2023-01-22T15:32:09.307Z,96055.72
2023-01-22T15:35:51.963Z,96053.13
2023-01-22T15:39:34.624Z,96063.72
2023-01-22T15:43:18.680Z,96054.56
2023-01-22T15:47:01.442Z,96057.97
2023-01-22T15:50:44.279Z,96066.69
2023-01-22T15:54:27.130Z,96062.34
2023-01-22T15:58:10.096Z,96060.44
2023-01-22T16:01:54.178Z,96062.09
2023-01-22T16:05:37.245Z,96067.25
2023-01-22T16:09:23.483Z,96063.97
2023-01-22T16:13:06.571Z,96064.22
2023-01-22T16:16:51.140Z,96065.28
2023-01-22T16:20:41.228Z,96062.84
2023-01-22T16:24:24.088Z,96066.38
2023-01-22T16:28:09.638Z,96072.34
2023-01-22T16:31:52.965Z,96076.47
2023-01-22T16:35:39.874Z,96082.84
2023-01-22T16:39:25.831Z,96090.84
2023-01-22T16:43:10.823Z,96083.06
2023-01-22T16:46:54.444Z,96088.50
2023-01-22T16:50:38.964Z,96086.16
2023-01-22T16:54:24.437Z,96092.97
2023-01-22T16:58:07.194Z,96092.97
2023-01-22T17:01:50.292Z,96087.81
2023-01-22T17:05:32.906Z,96100.03
2023-01-22T17:09:18.734Z,96102.63
2023-01-22T17:13:02.060Z,96097.00
2023-01-22T17:16:44.835Z,96109.22
2023-01-22T17:20:27.542Z,96107.69
2023-01-22T17:24:10.843Z,96114.88
2023-01-22T17:27:54.896Z,96114.31
2023-01-22T17:31:38.068Z,96120.28
2023-01-22T17:35:22.083Z,96118.66
2023-01-22T17:39:05.486Z,96119.72
2023-01-22T17:42:48.154Z,96108.56
2023-01-22T17:46:32.695Z,96112.06
2023-01-22T17:50:15.630Z,96122.41
2023-01-22T17:54:01.504Z,96125.94
2023-01-22T17:57:44.145Z,96126.31
2023-01-22T18:01:30.823Z,96123.09
2023-01-22T18:05:16.845Z,96126.88
2023-01-22T18:09:00.608Z,96126.53
2023-01-22T18:12:44.936Z,96143.34
2023-01-22T18:16:29.449Z,96147.09
2023-01-22T18:20:12.527Z,96147.34
2023-01-22T18:23:56.988Z,96140.75
2023-01-22T18:27:39.730Z,96141.22
2023-01-22T18:31:24.635Z,96143.09
2023-01-22T18:35:08.747Z,96144.16
2023-01-22T18:38:52.079Z,96162.59
2023-01-22T18:42:36.223Z,96147.56
2023-01-22T18:46:19.805Z,96158.13
2023-01-22T18:50:02.513Z,96153.16
2023-01-22T18:53:45.208Z,96165.16
2023-01-22T18:57:29.929Z,96166.06
2023-01-22T19:01:17.155Z,96172.88
2023-01-22T19:05:00.012Z,96174.50
2023-01-22T19:08:43.703Z,96178.97
2023-01-22T19:12:26.434Z,96183.88
2023-01-22T19:16:10.910Z,96183.50
2023-01-22T19:19:55.105Z,96181.28
2023-01-22T19:23:38.060Z,96188.53
2023-01-22T19:27:20.931Z,96193.94
2023-01-22T19:31:03.656Z,96195.41
2023-01-22T19:34:46.331Z,96181.91
2023-01-22T19:38:30.364Z,96201.09
2023-01-22T19:42:13.081Z,96207.94
2023-01-22T19:45:55.875Z,96208.19
2023-01-22T19:49:38.765Z,96209.13
2023-01-22T19:53:21.446Z,96221.81
2023-01-22T19:57:05.519Z,96223.22
2023-01-22T20:00:48.555Z,96229.78
2023-01-22T20:04:33.802Z,96228.59
2023-01-22T20:08:16.768Z,96229.75
2023-01-22T20:12:00.238Z,96232.53
2023-01-22T20:15:44.322Z,96239.56
2023-01-22T20:19:28.863Z,96241.44
2023-01-22T20:23:11.534Z,96247.06
2023-01-22T20:26:55.321Z,96253.63
2023-01-22T20:30:38.316Z,96248.56
2023-01-22T20:34:22.478Z,96250.22
2023-01-22T20:38:05.171Z,96252.06
2023-01-22T20:41:47.935Z,96245.03
2023-01-22T20:45:31.029Z,96239.28
2023-01-22T20:49:14.143Z,96240.09
2023-01-22T20:52:58.221Z,96241.88
2023-01-22T20:56:40.909Z,96249.84
2023-01-22T21:00:24.067Z,96249.84
2023-01-22T21:04:07.099Z,96243.03
2023-01-22T21:07:51.284Z,96242.19
2023-01-22T21:11:36.764Z,96243.25
2023-01-22T21:15:19.482Z,96245.34
2023-01-22T21:19:03.534Z,96245.06
2023-01-22T21:22:46.282Z,96253.47
2023-01-22T21:26:31.366Z,96251.81
2023-01-22T21:30:16.022Z,96257.00
2023-01-22T21:34:03.288Z,96272.69
2023-01-22T21:37:45.938Z,96265.56
2023-01-22T21:41:29.060Z,96267.53
2023-01-22T21:45:44.519Z,96266.34
2023-01-22T21:49:28.731Z,96264.47
2023-01-22T21:53:12.797Z,96272.81
2023-01-22T21:56:56.251Z,96265.06
2023-01-22T22:00:38.955Z,96268.03
2023-01-22T22:04:25.782Z,96262.06
2023-01-22T22:08:10.047Z,96261.63
2023-01-22T22:11:56.009Z,96265.66
2023-01-22T22:15:38.922Z,96269.66
2023-01-22T22:19:22.446Z,96270.50
2023-01-22T22:23:05.358Z,96273.78
2023-01-22T22:26:49.466Z,96262.53
2023-01-22T22:30:32.125Z,96268.94
2023-01-22T22:34:14.759Z,96259.78
2023-01-22T22:37:57.585Z,96273.22
2023-01-22T22:41:40.717Z,96269.09
2023-01-22T22:45:24.780Z,96248.88
2023-01-22T22:49:09.281Z,96260.84
2023-01-22T22:52:52.847Z,96272.59
2023-01-22T22:56:36.127Z,96275.91
2023-01-22T23:00:20.077Z,96263.06
2023-01-22T23:04:04.942Z,96270.59
2023-01-22T23:07:50.454Z,96277.91
2023-01-22T23:11:35.135Z,96279.56
2023-01-22T23:15:17.865Z,96281.41
2023-01-22T23:19:02.067Z,96282.56
2023-01-22T23:22:46.496Z,96292.16
2023-01-22T23:26:30.658Z,96295.69
2023-01-22T23:30:14.328Z,96292.16
2023-01-22T23:33:57.708Z,96291.66
2023-01-22T23:37:40.448Z,96290.00
2023-01-22T23:41:26.621Z,96284.34
2023-01-22T23:45:11.910Z,96303.75
2023-01-22T23:48:58.910Z,96300.66
2023-01-22T23:52:42.814Z,96295.06
2023-01-22T23:56:31.523Z,96296.31
